sensor_id;sensor_type;location;lat;lon;timestamp;temperature;humidity
21834;DHT22;11079;51.092;3.458;2023-02-16T07:19:17;7.50;99.90
21834;DHT22;11079;51.092;3.458;2023-02-16T07:21:43;7.30;99.90
21834;DHT22;11079;51.092;3.458;2023-02-16T07:24:09;7.30;99.90
21834;DHT22;11079;51.092;3.458;2023-02-16T07:26:34;7.40;99.90
21834;DHT22;11079;51.092;3.458;2023-02-16T07:29:03;7.30;99.90
21834;DHT22;11079;51.092;3.458;2023-02-16T07:31:29;7.40;99.90
21834;DHT22;11079;51.092;3.458;2023-02-16T07:33:55;7.40;99.90
21834;DHT22;11079;51.092;3.458;2023-02-16T07:36:20;7.40;99.90
21834;DHT22;11079;51.092;3.458;2023-02-16T07:38:46;7.50;99.90
21834;DHT22;11079;51.092;3.458;2023-02-16T07:41:12;7.50;99.90
21834;DHT22;11079;51.092;3.458;2023-02-16T07:43:38;7.50;99.90
21834;DHT22;11079;51.092;3.458;2023-02-16T07:46:04;7.50;99.90
21834;DHT22;11079;51.092;3.458;2023-02-16T07:48:30;7.50;99.90
21834;DHT22;11079;51.092;3.458;2023-02-16T07:50:56;7.50;99.90
21834;DHT22;11079;51.092;3.458;2023-02-16T07:53:22;7.50;99.90
21834;DHT22;11079;51.092;3.458;2023-02-16T07:55:50;7.50;99.90
21834;DHT22;11079;51.092;3.458;2023-02-16T07:58:16;7.60;99.90
21834;DHT22;11079;51.092;3.458;2023-02-16T08:01:10;7.50;99.90
21834;DHT22;11079;51.092;3.458;2023-02-16T08:03:36;7.60;99.90
21834;DHT22;11079;51.092;3.458;2023-02-16T08:06:03;7.60;99.90
21834;DHT22;11079;51.092;3.458;2023-02-16T08:08:29;7.70;99.90
21834;DHT22;11079;51.092;3.458;2023-02-16T08:10:55;7.70;99.90
21834;DHT22;11079;51.092;3.458;2023-02-16T08:13:21;7.80;99.90
21834;DHT22;11079;51.092;3.458;2023-02-16T08:15:47;7.70;99.90
21834;DHT22;11079;51.092;3.458;2023-02-16T08:18:12;7.80;99.90
21834;DHT22;11079;51.092;3.458;2023-02-16T08:21:05;7.70;99.90
21834;DHT22;11079;51.092;3.458;2023-02-16T08:23:35;7.70;99.90
21834;DHT22;11079;51.092;3.458;2023-02-16T08:26:07;7.80;99.90
21834;DHT22;11079;51.092;3.458;2023-02-16T08:28:34;7.90;99.90
21834;DHT22;11079;51.092;3.458;2023-02-16T08:31:04;7.90;99.90
21834;DHT22;11079;51.092;3.458;2023-02-16T08:33:30;8.00;99.90
21834;DHT22;11079;51.092;3.458;2023-02-16T08:35:57;8.00;99.90
21834;DHT22;11079;51.092;3.458;2023-02-16T08:38:23;8.30;99.90
21834;DHT22;11079;51.092;3.458;2023-02-16T08:40:49;8.10;99.90
21834;DHT22;11079;51.092;3.458;2023-02-16T08:43:15;8.20;99.90
21834;DHT22;11079;51.092;3.458;2023-02-16T08:45:45;8.30;99.90
21834;DHT22;11079;51.092;3.458;2023-02-16T08:48:12;8.40;99.90
21834;DHT22;11079;51.092;3.458;2023-02-16T08:50:47;8.60;99.90
21834;DHT22;11079;51.092;3.458;2023-02-16T08:53:25;8.50;99.90
21834;DHT22;11079;51.092;3.458;2023-02-16T08:55:56;8.50;99.90
21834;DHT22;11079;51.092;3.458;2023-02-16T08:58:23;8.60;99.90
21834;DHT22;11079;51.092;3.458;2023-02-16T09:00:49;8.60;99.90
21834;DHT22;11079;51.092;3.458;2023-02-16T09:03:16;8.70;99.90
21834;DHT22;11079;51.092;3.458;2023-02-16T09:05:47;8.80;99.90
21834;DHT22;11079;51.092;3.458;2023-02-16T09:08:14;8.80;99.90
21834;DHT22;11079;51.092;3.458;2023-02-16T09:10:40;8.80;99.90
21834;DHT22;11079;51.092;3.458;2023-02-16T09:13:05;8.80;99.90
21834;DHT22;11079;51.092;3.458;2023-02-16T09:15:35;8.90;99.90
21834;DHT22;11079;51.092;3.458;2023-02-16T09:18:02;9.10;99.90
21834;DHT22;11079;51.092;3.458;2023-02-16T09:20:27;9.20;99.90
21834;DHT22;11079;51.092;3.458;2023-02-16T09:22:53;9.20;99.90
21834;DHT22;11079;51.092;3.458;2023-02-16T09:25:19;9.10;99.90
21834;DHT22;11079;51.092;3.458;2023-02-16T09:27:45;9.10;99.90
21834;DHT22;11079;51.092;3.458;2023-02-16T09:30:11;9.20;99.90
21834;DHT22;11079;51.092;3.458;2023-02-16T09:32:37;9.20;99.90
21834;DHT22;11079;51.092;3.458;2023-02-16T09:35:04;9.20;99.90
21834;DHT22;11079;51.092;3.458;2023-02-16T09:37:34;9.20;99.90
21834;DHT22;11079;51.092;3.458;2023-02-16T09:40:00;9.30;99.90
21834;DHT22;11079;51.092;3.458;2023-02-16T09:45:12;9.50;99.90
21834;DHT22;11079;51.092;3.458;2023-02-16T09:47:44;9.50;99.90
21834;DHT22;11079;51.092;3.458;2023-02-16T09:50:23;9.80;99.90
21834;DHT22;11079;51.092;3.458;2023-02-16T09:55:31;9.80;99.90
21834;DHT22;11079;51.092;3.458;2023-02-16T09:58:22;10.00;99.90
21834;DHT22;11079;51.092;3.458;2023-02-16T10:00:55;10.20;99.90
21834;DHT22;11079;51.092;3.458;2023-02-16T10:06:47;10.30;99.90
21834;DHT22;11079;51.092;3.458;2023-02-16T10:09:16;10.20;99.90
21834;DHT22;11079;51.092;3.458;2023-02-16T10:11:50;10.40;99.90
21834;DHT22;11079;51.092;3.458;2023-02-16T10:19:52;10.80;99.90
21834;DHT22;11079;51.092;3.458;2023-02-16T10:23:23;10.60;99.90
21834;DHT22;11079;51.092;3.458;2023-02-16T10:25:42;10.70;99.90
21834;DHT22;11079;51.092;3.458;2023-02-16T10:28:28;10.80;99.90
21834;DHT22;11079;51.092;3.458;2023-02-16T10:31:03;11.20;99.90
21834;DHT22;11079;51.092;3.458;2023-02-16T10:42:24;11.30;99.90
21834;DHT22;11079;51.092;3.458;2023-02-16T10:45:33;11.40;99.90
21834;DHT22;11079;51.092;3.458;2023-02-16T10:48:03;11.30;99.90
21834;DHT22;11079;51.092;3.458;2023-02-16T10:50:41;11.50;99.90
21834;DHT22;11079;51.092;3.458;2023-02-16T10:53:16;11.90;99.90
21834;DHT22;11079;51.092;3.458;2023-02-16T10:55:45;12.20;99.90
21834;DHT22;11079;51.092;3.458;2023-02-16T10:58:18;12.20;99.90
21834;DHT22;11079;51.092;3.458;2023-02-16T11:07:29;12.80;99.90
21834;DHT22;11079;51.092;3.458;2023-02-16T11:14:05;12.20;99.90
21834;DHT22;11079;51.092;3.458;2023-02-16T11:27:20;13.00;99.90
21834;DHT22;11079;51.092;3.458;2023-02-16T11:30:17;13.00;99.90
21834;DHT22;11079;51.092;3.458;2023-02-16T11:33:00;13.00;99.90
21834;DHT22;11079;51.092;3.458;2023-02-16T11:35:48;12.90;99.90
21834;DHT22;11079;51.092;3.458;2023-02-16T11:38:33;13.10;99.90
21834;DHT22;11079;51.092;3.458;2023-02-16T11:41:07;13.00;99.90
21834;DHT22;11079;51.092;3.458;2023-02-16T11:43:37;13.50;99.90
21834;DHT22;11079;51.092;3.458;2023-02-16T11:46:15;13.60;99.90
21834;DHT22;11079;51.092;3.458;2023-02-16T11:48:55;14.00;99.90
21834;DHT22;11079;51.092;3.458;2023-02-16T11:51:34;14.00;99.90
21834;DHT22;11079;51.092;3.458;2023-02-16T11:54:35;13.80;99.90
21834;DHT22;11079;51.092;3.458;2023-02-16T11:57:40;13.50;99.90
21834;DHT22;11079;51.092;3.458;2023-02-16T12:00:23;13.10;99.90
21834;DHT22;11079;51.092;3.458;2023-02-16T12:03:25;13.00;99.90
21834;DHT22;11079;51.092;3.458;2023-02-16T12:09:02;13.00;99.90
21834;DHT22;11079;51.092;3.458;2023-02-16T12:14:20;13.10;99.90
21834;DHT22;11079;51.092;3.458;2023-02-16T13:17:19;13.30;99.90
21834;DHT22;11079;51.092;3.458;2023-02-16T13:39:01;13.20;99.90
21834;DHT22;11079;51.092;3.458;2023-02-16T13:45:44;13.10;99.90
21834;DHT22;11079;51.092;3.458;2023-02-16T13:49:05;12.90;99.90
21834;DHT22;11079;51.092;3.458;2023-02-16T13:58:38;13.10;99.90
21834;DHT22;11079;51.092;3.458;2023-02-16T14:01:37;13.10;99.90
21834;DHT22;11079;51.092;3.458;2023-02-16T14:11:33;13.10;99.90
21834;DHT22;11079;51.092;3.458;2023-02-16T14:30:00;13.00;99.90
21834;DHT22;11079;51.092;3.458;2023-02-16T14:32:34;13.20;99.90
21834;DHT22;11079;51.092;3.458;2023-02-16T14:35:18;13.20;99.90
21834;DHT22;11079;51.092;3.458;2023-02-16T15:01:11;13.20;99.90
21834;DHT22;11079;51.092;3.458;2023-02-16T15:03:55;12.80;99.90
21834;DHT22;11079;51.092;3.458;2023-02-16T15:06:46;12.60;99.90
21834;DHT22;11079;51.092;3.458;2023-02-16T15:09:19;12.40;99.90
21834;DHT22;11079;51.092;3.458;2023-02-16T15:12:36;12.40;99.90
21834;DHT22;11079;51.092;3.458;2023-02-16T15:20:34;12.20;99.90
21834;DHT22;11079;51.092;3.458;2023-02-16T15:23:32;12.10;99.90
21834;DHT22;11079;51.092;3.458;2023-02-16T15:26:17;12.10;99.90
21834;DHT22;11079;51.092;3.458;2023-02-16T15:28:54;12.00;99.90
21834;DHT22;11079;51.092;3.458;2023-02-16T15:31:36;12.00;99.90
21834;DHT22;11079;51.092;3.458;2023-02-16T15:37:37;11.80;99.90
21834;DHT22;11079;51.092;3.458;2023-02-16T15:40:14;11.70;99.90
21834;DHT22;11079;51.092;3.458;2023-02-16T15:42:42;11.70;99.90
21834;DHT22;11079;51.092;3.458;2023-02-16T15:45:32;11.70;99.90
21834;DHT22;11079;51.092;3.458;2023-02-16T15:48:21;11.70;99.90
21834;DHT22;11079;51.092;3.458;2023-02-16T15:51:16;11.80;99.90
21834;DHT22;11079;51.092;3.458;2023-02-16T15:54:32;11.70;99.90
21834;DHT22;11079;51.092;3.458;2023-02-16T15:56:46;11.70;99.90
21834;DHT22;11079;51.092;3.458;2023-02-16T16:02:18;11.60;99.90
21834;DHT22;11079;51.092;3.458;2023-02-16T16:07:16;11.60;99.90
21834;DHT22;11079;51.092;3.458;2023-02-16T16:09:44;11.60;99.90
21834;DHT22;11079;51.092;3.458;2023-02-16T16:12:13;11.50;99.90
21834;DHT22;11079;51.092;3.458;2023-02-16T16:14:59;11.50;99.90
21834;DHT22;11079;51.092;3.458;2023-02-16T16:17:35;11.50;99.90
21834;DHT22;11079;51.092;3.458;2023-02-16T16:23:00;11.40;99.90
21834;DHT22;11079;51.092;3.458;2023-02-16T16:25:29;11.40;99.90
21834;DHT22;11079;51.092;3.458;2023-02-16T16:27:57;11.40;99.90
21834;DHT22;11079;51.092;3.458;2023-02-16T16:33:02;11.30;99.90
21834;DHT22;11079;51.092;3.458;2023-02-16T16:35:39;11.20;99.90
21834;DHT22;11079;51.092;3.458;2023-02-16T16:41:28;11.10;99.90
21834;DHT22;11079;51.092;3.458;2023-02-16T16:43:55;11.10;99.90
21834;DHT22;11079;51.092;3.458;2023-02-16T16:46:28;11.00;99.90
21834;DHT22;11079;51.092;3.458;2023-02-16T16:49:01;10.90;99.90
21834;DHT22;11079;51.092;3.458;2023-02-16T16:51:50;11.00;99.90
21834;DHT22;11079;51.092;3.458;2023-02-16T16:54:39;10.90;99.90
21834;DHT22;11079;51.092;3.458;2023-02-16T17:00:44;10.80;99.90
21834;DHT22;11079;51.092;3.458;2023-02-16T17:03:48;11.10;99.90
21834;DHT22;11079;51.092;3.458;2023-02-16T19:40:23;11.50;99.90
21834;DHT22;11079;51.092;3.458;2023-02-16T19:50:36;11.70;99.90
21834;DHT22;11079;51.092;3.458;2023-02-16T20:02:19;11.90;99.90
21834;DHT22;11079;51.092;3.458;2023-02-16T20:05:02;12.00;99.90
21834;DHT22;11079;51.092;3.458;2023-02-16T20:11:04;11.90;99.90
21834;DHT22;11079;51.092;3.458;2023-02-16T20:13:35;11.80;99.90
21834;DHT22;11079;51.092;3.458;2023-02-16T20:16:26;11.70;99.90
21834;DHT22;11079;51.092;3.458;2023-02-16T20:19:18;11.80;99.90
21834;DHT22;11079;51.092;3.458;2023-02-16T20:35:47;11.80;99.90
21834;DHT22;11079;51.092;3.458;2023-02-16T20:38:51;11.80;99.90
21834;DHT22;11079;51.092;3.458;2023-02-16T20:45:31;11.80;99.90
21834;DHT22;11079;51.092;3.458;2023-02-16T21:18:18;11.80;99.90
21834;DHT22;11079;51.092;3.458;2023-02-16T21:21:16;11.90;99.90
21834;DHT22;11079;51.092;3.458;2023-02-16T21:23:54;11.80;99.90
21834;DHT22;11079;51.092;3.458;2023-02-16T21:47:51;11.60;99.90
21834;DHT22;11079;51.092;3.458;2023-02-16T21:57:58;11.60;99.90
21834;DHT22;11079;51.092;3.458;2023-02-16T22:05:12;11.60;99.90
21834;DHT22;11079;51.092;3.458;2023-02-16T22:11:47;11.60;99.90
21834;DHT22;11079;51.092;3.458;2023-02-16T22:18:12;11.70;99.90
21834;DHT22;11079;51.092;3.458;2023-02-16T22:20:49;11.60;99.90
21834;DHT22;11079;51.092;3.458;2023-02-16T22:23:50;11.50;99.90
21834;DHT22;11079;51.092;3.458;2023-02-16T22:26:22;11.70;99.90
21834;DHT22;11079;51.092;3.458;2023-02-16T22:35:41;11.60;99.90
21834;DHT22;11079;51.092;3.458;2023-02-16T22:38:27;11.50;99.90
21834;DHT22;11079;51.092;3.458;2023-02-16T23:08:24;11.60;99.90
